Time;durP1;ratioP1;P1;durP2;ratioP2;P2;SDS_P1;SDS_P2;PMS_P1;PMS_P2;Temp;Humidity;BMP_temperature;BMP_pressure;BME280_temperature;BME280_humidity;BME280_pressure;Samples;Min_cycle;Max_cycle;Signal;HPM_P1;HPM_P2
2022/03/27 00:00:48;;;;;;;7.00;6.30;;;8.20;99.90;;;;;;5030467;28;20258;-81
2022/03/27 00:03:15;;;;;;;5.90;5.40;;;8.20;99.90;;;;;;5030472;28;20266;-81
2022/03/27 00:05:41;;;;;;;5.93;5.43;;;8.10;99.90;;;;;;5030540;28;20878;-80
2022/03/27 00:08:09;;;;;;;6.50;5.50;;;8.20;99.90;;;;;;5030438;28;20287;-81
2022/03/27 00:13:18;;;;;;;7.60;6.00;;;8.20;99.90;;;;;;5029845;28;20290;-81
2022/03/27 00:15:45;;;;;;;6.23;5.70;;;8.10;99.90;;;;;;5030026;28;20693;-81
2022/03/27 00:18:11;;;;;;;5.77;5.30;;;8.10;99.90;;;;;;5030028;28;20209;-81
2022/03/27 00:20:38;;;;;;;6.20;5.40;;;8.10;99.90;;;;;;5029651;28;20248;-81
2022/03/27 00:23:05;;;;;;;6.67;6.03;;;8.00;99.90;;;;;;5031118;28;20205;-81
2022/03/27 00:25:31;;;;;;;6.67;6.07;;;8.00;99.90;;;;;;5030025;28;20460;-81
2022/03/27 00:27:59;;;;;;;6.23;5.63;;;7.90;99.90;;;;;;5029716;28;20228;-81
2022/03/27 00:30:26;;;;;;;6.33;5.73;;;7.90;99.90;;;;;;5029811;28;20216;-81
2022/03/27 00:32:53;;;;;;;7.13;5.93;;;7.90;99.90;;;;;;5028913;28;20215;-81
2022/03/27 00:35:20;;;;;;;7.47;5.93;;;7.90;99.90;;;;;;5029919;28;20244;-81
2022/03/27 00:37:46;;;;;;;8.20;5.97;;;7.90;99.90;;;;;;5029799;28;20205;-81
2022/03/27 00:40:14;;;;;;;6.80;6.20;;;7.80;99.90;;;;;;5029715;28;20233;-81
2022/03/27 00:42:42;;;;;;;7.90;7.10;;;7.90;99.90;;;;;;5029911;28;20220;-81
2022/03/27 00:45:11;;;;;;;7.70;6.63;;;7.90;99.90;;;;;;5029450;28;20296;-81
2022/03/27 00:47:37;;;;;;;6.83;6.23;;;7.90;99.90;;;;;;5029477;28;20675;-81
2022/03/27 00:50:05;;;;;;;6.37;5.70;;;7.80;99.90;;;;;;5029890;28;20679;-82
2022/03/27 00:52:32;;;;;;;6.73;6.03;;;7.80;99.90;;;;;;5029677;28;20209;-81
2022/03/27 00:55:00;;;;;;;6.73;6.13;;;7.80;99.90;;;;;;5029469;28;20817;-86
2022/03/27 00:57:27;;;;;;;6.63;5.83;;;7.80;99.90;;;;;;5029521;28;20266;-81
2022/03/27 00:59:53;;;;;;;6.90;6.20;;;7.70;99.90;;;;;;5009595;28;20237;-81
2022/03/27 01:02:22;;;;;;;6.77;6.17;;;7.70;99.90;;;;;;5009834;28;20263;-81
2022/03/27 01:04:49;;;;;;;6.60;5.70;;;7.70;99.90;;;;;;5009779;28;20272;-82
2022/03/27 01:07:19;;;;;;;6.83;6.23;;;7.70;99.90;;;;;;5009499;28;20654;-81
2022/03/27 01:09:44;;;;;;;9.27;6.40;;;7.70;99.90;;;;;;5009678;28;20214;-81
2022/03/27 01:12:16;;;;;;;6.83;6.13;;;7.50;99.90;;;;;;5018906;28;20260;-81
2022/03/27 01:14:44;;;;;;;6.83;6.20;;;7.50;99.90;;;;;;5021876;28;20213;-81
2022/03/27 01:17:14;;;;;;;6.33;5.73;;;7.50;99.90;;;;;;5009522;28;20317;-81
2022/03/27 01:19:43;;;;;;;8.23;6.70;;;7.50;99.90;;;;;;5008892;28;20716;-81
2022/03/27 01:22:11;;;;;;;6.63;6.03;;;7.50;99.90;;;;;;5010968;28;20237;-82
2022/03/27 01:24:38;;;;;;;7.40;5.90;;;7.50;99.90;;;;;;5028590;28;20350;-81
2022/03/27 01:27:06;;;;;;;6.40;5.90;;;7.50;99.90;;;;;;5029024;28;20235;-81
2022/03/27 01:29:34;;;;;;;7.10;6.40;;;7.50;99.90;;;;;;5028494;28;20672;-82
2022/03/27 01:32:01;;;;;;;6.77;6.07;;;7.40;99.90;;;;;;5028800;28;20252;-81
2022/03/27 01:34:28;;;;;;;6.17;5.67;;;7.40;99.90;;;;;;5028715;28;20354;-81
2022/03/27 01:36:55;;;;;;;6.63;6.13;;;7.20;99.90;;;;;;5028946;28;20254;-81
2022/03/27 01:39:23;;;;;;;6.70;5.77;;;7.20;99.90;;;;;;5028767;28;20217;-81
2022/03/27 01:41:50;;;;;;;5.90;5.40;;;7.20;99.90;;;;;;5028551;28;20233;-82
2022/03/27 01:44:20;;;;;;;6.30;5.70;;;7.20;99.90;;;;;;5028379;28;20208;-81
2022/03/27 01:46:47;;;;;;;5.90;5.27;;;7.10;99.90;;;;;;5028955;28;20549;-81
2022/03/27 01:49:16;;;;;;;5.57;5.13;;;7.10;99.90;;;;;;5028528;28;20209;-81
2022/03/27 01:51:44;;;;;;;5.90;5.23;;;7.20;99.90;;;;;;5028538;28;20211;-81
2022/03/27 01:54:11;;;;;;;5.57;4.87;;;7.10;99.90;;;;;;5014848;28;20302;-81
2022/03/27 01:56:39;;;;;;;5.93;5.00;;;7.10;99.90;;;;;;5028336;28;20240;-81
2022/03/27 01:59:07;;;;;;;4.93;4.50;;;7.00;99.90;;;;;;5028011;28;20663;-81
2022/03/27 02:01:34;;;;;;;5.13;4.73;;;7.00;99.90;;;;;;5028261;28;20283;-81
2022/03/27 02:04:01;;;;;;;4.80;4.40;;;7.00;99.90;;;;;;5028431;28;20683;-80
2022/03/27 02:06:28;;;;;;;5.87;5.37;;;7.00;99.90;;;;;;5028268;28;20295;-81
2022/03/27 02:08:55;;;;;;;5.17;4.77;;;6.90;99.90;;;;;;5015053;28;20216;-81
2022/03/27 02:11:22;;;;;;;5.40;4.93;;;6.90;99.90;;;;;;5018719;28;20468;-81
2022/03/27 02:13:50;;;;;;;5.40;5.00;;;6.90;99.90;;;;;;5028488;28;20274;-82
2022/03/27 02:16:17;;;;;;;5.30;4.90;;;7.00;99.90;;;;;;5028277;28;20254;-81
2022/03/27 02:18:44;;;;;;;5.33;4.93;;;7.00;99.90;;;;;;5028140;28;20241;-81
2022/03/27 02:21:11;;;;;;;4.97;4.57;;;6.90;99.90;;;;;;5028541;28;20758;-81
2022/03/27 02:23:39;;;;;;;5.07;4.67;;;6.90;99.90;;;;;;5029064;28;20212;-81
2022/03/27 02:26:05;;;;;;;5.60;5.10;;;6.90;99.90;;;;;;5028278;28;20209;-81
2022/03/27 02:28:33;;;;;;;5.37;4.87;;;6.90;99.90;;;;;;5028090;28;20215;-81
2022/03/27 02:31:01;;;;;;;5.93;5.30;;;6.90;99.90;;;;;;5028172;28;20216;-82
2022/03/27 02:33:28;;;;;;;5.17;4.70;;;6.80;99.90;;;;;;5028271;28;20262;-81
2022/03/27 02:35:55;;;;;;;5.00;4.60;;;6.90;99.90;;;;;;5028189;28;20208;-81
2022/03/27 02:38:22;;;;;;;4.77;4.47;;;6.80;99.90;;;;;;5028062;28;20205;-81
2022/03/27 02:40:49;;;;;;;5.50;5.10;;;6.80;99.90;;;;;;5028101;28;20278;-81
2022/03/27 02:43:15;;;;;;;5.40;4.90;;;6.70;99.90;;;;;;5028040;28;20581;-81
2022/03/27 02:45:42;;;;;;;5.93;5.43;;;6.60;99.90;;;;;;5028085;28;20727;-81
2022/03/27 02:48:10;;;;;;;5.17;4.67;;;6.70;99.90;;;;;;5028010;28;20212;-81
2022/03/27 02:50:39;;;;;;;6.03;5.43;;;6.60;99.90;;;;;;5028089;28;20208;-81
2022/03/27 02:53:06;;;;;;;5.80;5.20;;;6.60;99.90;;;;;;5026012;28;20209;-81
2022/03/27 02:55:33;;;;;;;5.67;5.10;;;6.50;99.90;;;;;;5027771;28;20213;-81
2022/03/27 02:58:00;;;;;;;5.60;5.07;;;6.50;99.90;;;;;;5031384;28;20212;-81
2022/03/27 03:00:27;;;;;;;5.23;4.83;;;6.50;99.90;;;;;;5031443;28;20208;-81
2022/03/27 03:02:54;;;;;;;5.60;5.10;;;6.60;99.90;;;;;;5032105;28;20226;-81
2022/03/27 03:05:23;;;;;;;4.93;4.60;;;6.50;99.90;;;;;;5031607;28;20209;-81
2022/03/27 03:07:51;;;;;;;5.37;4.63;;;6.40;99.90;;;;;;5019747;28;20638;-81
2022/03/27 03:10:18;;;;;;;5.17;4.77;;;6.40;99.90;;;;;;5011606;28;20221;-82
2022/03/27 03:12:45;;;;;;;4.80;4.43;;;6.40;99.90;;;;;;5012022;28;20268;-81
2022/03/27 03:15:13;;;;;;;7.13;6.43;;;6.40;99.90;;;;;;5011648;28;20213;-81
2022/03/27 03:17:40;;;;;;;6.20;5.60;;;6.40;99.90;;;;;;5028833;28;20263;-81
2022/03/27 03:20:07;;;;;;;7.13;5.70;;;6.50;99.90;;;;;;5031329;28;20244;-81
2022/03/27 03:22:37;;;;;;;7.83;7.07;;;6.40;99.90;;;;;;5029427;28;20245;-81
2022/03/27 03:25:05;;;;;;;7.07;6.27;;;6.40;99.90;;;;;;5011609;28;20202;-81
2022/03/27 03:27:31;;;;;;;7.33;6.63;;;6.30;99.90;;;;;;5011504;28;20217;-81
2022/03/27 03:29:58;;;;;;;7.10;6.27;;;6.30;99.90;;;;;;5011541;28;20256;-81
2022/03/27 03:32:25;;;;;;;6.73;6.03;;;6.30;99.90;;;;;;5011434;28;20210;-81
2022/03/27 03:34:52;;;;;;;7.93;7.13;;;6.20;99.90;;;;;;5011495;28;20209;-81
2022/03/27 03:37:18;;;;;;;8.80;7.73;;;6.20;99.90;;;;;;5011539;28;20296;-82
2022/03/27 03:39:47;;;;;;;7.63;6.37;;;6.10;99.90;;;;;;5011288;28;20776;-81
2022/03/27 03:42:14;;;;;;;8.07;7.27;;;6.20;99.90;;;;;;5023784;28;20244;-81
2022/03/27 03:44:41;;;;;;;7.73;6.83;;;6.20;99.90;;;;;;5031038;28;20208;-81
2022/03/27 03:47:09;;;;;;;7.63;6.73;;;6.20;99.90;;;;;;5031203;28;20729;-81
2022/03/27 03:49:36;;;;;;;10.37;7.87;;;6.20;99.90;;;;;;5031181;28;20255;-81
2022/03/27 03:52:03;;;;;;;8.30;7.33;;;6.20;99.90;;;;;;5031261;28;20220;-81
2022/03/27 03:54:29;;;;;;;8.00;7.20;;;6.20;99.90;;;;;;5030921;28;20246;-81
2022/03/27 03:56:57;;;;;;;7.90;7.13;;;6.10;99.90;;;;;;5031111;28;20227;-81
2022/03/27 03:59:24;;;;;;;7.27;6.67;;;6.10;99.90;;;;;;5030807;28;20212;-81
2022/03/27 04:01:51;;;;;;;8.07;7.27;;;6.20;99.90;;;;;;5030897;28;20639;-80
2022/03/27 04:04:17;;;;;;;7.37;6.67;;;6.20;99.90;;;;;;5017005;28;20220;-81
2022/03/27 04:06:44;;;;;;;8.87;7.27;;;6.20;99.90;;;;;;5010779;28;20751;-81
2022/03/27 04:09:11;;;;;;;7.43;6.70;;;6.20;99.90;;;;;;5011105;28;20239;-81
2022/03/27 04:11:37;;;;;;;7.87;7.07;;;6.20;99.90;;;;;;5010747;28;20210;-84
2022/03/27 04:14:05;;;;;;;7.80;7.10;;;6.20;99.90;;;;;;5028666;28;20217;-81
2022/03/27 04:16:32;;;;;;;7.93;7.00;;;6.10;99.90;;;;;;5030384;28;20256;-84
2022/03/27 04:18:59;;;;;;;7.57;6.77;;;6.10;99.90;;;;;;5030097;28;20232;-82
2022/03/27 04:21:26;;;;;;;7.90;7.10;;;6.10;99.90;;;;;;5029689;28;20714;-81
2022/03/27 04:23:53;;;;;;;10.27;7.30;;;6.10;99.90;;;;;;5031121;28;20216;-81
2022/03/27 04:26:20;;;;;;;7.93;6.80;;;6.10;99.90;;;;;;5030045;28;20255;-81
2022/03/27 04:28:47;;;;;;;8.63;6.97;;;6.10;99.90;;;;;;5030279;28;20212;-81
2022/03/27 04:31:18;;;;;;;7.43;6.60;;;6.10;99.90;;;;;;5029982;28;20217;-81
2022/03/27 04:33:45;;;;;;;7.83;6.53;;;6.00;99.90;;;;;;5030218;28;20196;-81
2022/03/27 04:36:11;;;;;;;7.37;5.70;;;6.00;99.90;;;;;;5030003;28;20212;-81
2022/03/27 04:38:38;;;;;;;6.67;5.87;;;6.00;99.90;;;;;;5030012;28;20204;-81
2022/03/27 04:41:07;;;;;;;6.50;5.80;;;6.00;99.90;;;;;;5029635;28;20294;-81
2022/03/27 04:43:34;;;;;;;8.47;5.97;;;6.00;99.90;;;;;;5029771;28;20685;-82
2022/03/27 04:46:01;;;;;;;8.23;6.13;;;6.00;99.90;;;;;;5029456;28;20729;-81
2022/03/27 04:48:29;;;;;;;9.00;6.83;;;5.90;99.90;;;;;;5029560;28;20772;-82
2022/03/27 04:50:56;;;;;;;7.97;6.03;;;5.80;99.90;;;;;;5029824;28;20201;-81
2022/03/27 04:53:22;;;;;;;7.17;6.20;;;5.60;99.90;;;;;;5018805;28;20206;-81
2022/03/27 04:55:49;;;;;;;6.20;5.70;;;5.70;99.90;;;;;;5009821;28;20209;-81
2022/03/27 04:58:16;;;;;;;6.87;6.10;;;5.80;99.90;;;;;;5027914;28;20208;-81
2022/03/27 05:00:43;;;;;;;7.53;5.93;;;5.90;99.90;;;;;;5029501;28;20343;-81
2022/03/27 05:03:11;;;;;;;7.07;5.80;;;5.90;99.90;;;;;;5029630;28;20294;-81
2022/03/27 05:05:39;;;;;;;5.53;5.10;;;5.90;99.90;;;;;;5029502;28;20295;-82
2022/03/27 05:08:06;;;;;;;5.53;5.00;;;5.80;99.90;;;;;;5029412;28;20233;-81
2022/03/27 05:10:33;;;;;;;5.87;5.37;;;5.90;99.90;;;;;;5029069;28;20618;-81
2022/03/27 05:13:00;;;;;;;6.00;5.60;;;5.90;99.90;;;;;;5029204;28;20552;-81
2022/03/27 05:15:27;;;;;;;5.03;4.70;;;5.90;99.90;;;;;;5028969;28;20259;-81
2022/03/27 05:17:57;;;;;;;5.00;4.60;;;6.00;99.90;;;;;;5029165;28;20221;-81
2022/03/27 05:20:24;;;;;;;6.00;5.50;;;6.10;99.90;;;;;;5028171;28;20263;-81
2022/03/27 05:22:53;;;;;;;5.13;4.73;;;6.00;99.90;;;;;;5029974;28;20239;-82
2022/03/27 05:25:19;;;;;;;5.30;4.90;;;6.10;99.90;;;;;;5029308;28;20247;-81
2022/03/27 05:27:48;;;;;;;4.57;4.27;;;6.10;99.90;;;;;;5028987;28;20215;-81
2022/03/27 05:30:16;;;;;;;4.87;4.47;;;6.10;99.90;;;;;;5028660;28;20686;-81
2022/03/27 05:32:43;;;;;;;5.13;4.73;;;6.10;99.90;;;;;;5029046;28;20221;-81
2022/03/27 05:35:10;;;;;;;7.63;6.27;;;6.20;99.90;;;;;;5029079;28;20308;-81
2022/03/27 05:37:37;;;;;;;6.80;6.10;;;6.20;99.90;;;;;;5028758;28;20223;-81
2022/03/27 05:40:08;;;;;;;6.57;5.97;;;6.00;99.90;;;;;;5028710;28;20255;-81
2022/03/27 05:42:35;;;;;;;6.53;5.93;;;6.00;99.90;;;;;;5027893;28;20236;-81
2022/03/27 05:45:02;;;;;;;7.60;5.73;;;6.00;99.90;;;;;;5028651;28;20277;-81
2022/03/27 05:47:29;;;;;;;6.30;5.77;;;6.00;99.90;;;;;;5028509;28;20208;-81
2022/03/27 05:49:56;;;;;;;6.17;5.20;;;5.90;99.90;;;;;;5028783;28;20200;-80
2022/03/27 05:52:23;;;;;;;6.77;5.90;;;5.90;99.90;;;;;;5026713;28;20201;-82
2022/03/27 05:54:50;;;;;;;7.27;6.30;;;5.80;99.90;;;;;;5028628;28;20296;-81
2022/03/27 05:57:19;;;;;;;6.70;6.10;;;5.80;99.90;;;;;;5028322;28;20201;-81
2022/03/27 05:59:46;;;;;;;7.10;6.40;;;5.80;99.90;;;;;;5028253;28;20208;-81
2022/03/27 06:02:13;;;;;;;6.37;5.77;;;5.80;99.90;;;;;;5028481;28;20232;-80
2022/03/27 06:04:40;;;;;;;7.23;6.00;;;5.90;99.90;;;;;;5028163;28;20207;-80
2022/03/27 06:07:07;;;;;;;6.87;5.73;;;6.00;99.90;;;;;;5028338;28;20224;-81
2022/03/27 06:09:34;;;;;;;8.10;6.17;;;6.00;99.90;;;;;;5028401;28;20209;-81
2022/03/27 06:12:01;;;;;;;6.30;5.60;;;6.00;99.90;;;;;;5028231;28;20225;-81
2022/03/27 06:14:29;;;;;;;7.83;6.47;;;6.00;99.90;;;;;;5028063;28;20258;-82
2022/03/27 06:16:55;;;;;;;7.40;6.63;;;6.00;99.90;;;;;;5028512;28;20262;-81
2022/03/27 06:19:22;;;;;;;6.27;5.67;;;6.00;99.90;;;;;;5028169;28;20240;-81
2022/03/27 06:21:49;;;;;;;6.43;5.83;;;6.00;99.90;;;;;;5028045;28;20638;-81
2022/03/27 06:24:16;;;;;;;5.97;5.47;;;6.00;99.90;;;;;;5029264;28;20209;-83
2022/03/27 06:26:43;;;;;;;6.37;5.80;;;6.10;99.90;;;;;;5028318;28;20209;-83
2022/03/27 06:29:14;;;;;;;5.80;5.30;;;6.10;99.90;;;;;;5028192;28;20215;-83
2022/03/27 06:31:42;;;;;;;5.93;5.17;;;6.20;99.90;;;;;;5029744;28;20192;-83
2022/03/27 06:34:09;;;;;;;6.10;5.50;;;6.40;99.90;;;;;;5032260;28;20262;-82
2022/03/27 06:36:36;;;;;;;5.73;5.23;;;6.40;99.90;;;;;;5031923;28;20239;-83
2022/03/27 06:39:06;;;;;;;5.27;4.83;;;6.60;99.90;;;;;;5032454;28;20208;-83
2022/03/27 06:41:33;;;;;;;6.67;6.07;;;6.70;99.90;;;;;;5031650;28;20235;-83
2022/03/27 06:43:59;;;;;;;6.60;5.90;;;6.80;99.90;;;;;;5031875;28;20217;-83
2022/03/27 06:46:27;;;;;;;6.20;5.63;;;6.90;99.90;;;;;;5032124;28;20208;-83
2022/03/27 06:48:55;;;;;;;6.13;5.57;;;7.00;99.90;;;;;;5032105;28;20208;-83
2022/03/27 06:51:22;;;;;;;5.53;5.00;;;7.10;99.90;;;;;;5031604;28;20778;-83
2022/03/27 06:53:49;;;;;;;5.80;5.30;;;7.10;99.90;;;;;;5013459;28;20563;-83
2022/03/27 06:56:15;;;;;;;5.90;5.40;;;7.20;99.90;;;;;;5012046;28;20210;-83
2022/03/27 06:58:42;;;;;;;6.33;5.83;;;7.20;99.90;;;;;;5012122;28;20256;-83
2022/03/27 07:03:54;;;;;;;6.50;5.90;;;7.40;99.90;;;;;;5011704;28;20208;-81
2022/03/27 07:06:21;;;;;;;5.97;5.47;;;7.40;99.90;;;;;;5011609;28;20235;-81
2022/03/27 07:08:47;;;;;;;6.17;5.67;;;7.50;99.90;;;;;;5023986;28;20205;-81
2022/03/27 07:11:14;;;;;;;6.83;6.23;;;7.50;99.90;;;;;;5031622;28;20209;-81
2022/03/27 07:13:42;;;;;;;5.93;5.53;;;7.60;99.90;;;;;;5031402;28;20304;-81
2022/03/27 07:16:10;;;;;;;6.10;5.50;;;7.60;99.90;;;;;;5031327;28;20274;-81
2022/03/27 07:18:37;;;;;;;6.57;6.07;;;7.70;99.90;;;;;;5031211;28;20209;-81
2022/03/27 07:21:09;;;;;;;6.30;5.70;;;7.70;99.90;;;;;;5031186;28;20793;-81
2022/03/27 07:23:35;;;;;;;5.80;5.40;;;7.80;99.90;;;;;;5031892;28;20330;-81
2022/03/27 07:26:06;;;;;;;6.37;5.80;;;7.90;99.90;;;;;;5031252;28;20243;-83
2022/03/27 07:28:32;;;;;;;7.03;6.43;;;7.90;99.90;;;;;;5031028;28;20730;-81
2022/03/27 07:30:59;;;;;;;7.10;6.40;;;8.00;99.90;;;;;;5030888;28;20201;-81
2022/03/27 07:33:27;;;;;;;6.73;6.13;;;8.00;99.90;;;;;;5030749;28;20245;-81
2022/03/27 07:35:54;;;;;;;7.03;6.33;;;8.10;99.90;;;;;;5031172;28;20241;-81
2022/03/27 07:38:22;;;;;;;8.87;7.20;;;8.20;99.90;;;;;;5031155;28;20211;-80
2022/03/27 07:40:49;;;;;;;9.17;7.47;;;8.20;99.90;;;;;;5030808;28;20274;-81
2022/03/27 07:43:15;;;;;;;8.47;7.67;;;8.30;99.90;;;;;;5030522;28;20244;-81
2022/03/27 07:45:42;;;;;;;10.17;8.97;;;8.30;99.90;;;;;;5031062;28;20278;-81
2022/03/27 07:48:09;;;;;;;10.17;8.60;;;8.40;99.90;;;;;;5031150;28;20209;-81
2022/03/27 07:50:36;;;;;;;9.50;7.97;;;8.40;99.90;;;;;;5030821;28;20213;-81
2022/03/27 07:53:04;;;;;;;8.47;7.63;;;8.50;99.90;;;;;;5028626;28;20217;-81
2022/03/27 07:55:33;;;;;;;8.33;7.27;;;8.60;99.90;;;;;;5030638;28;20201;-81
2022/03/27 07:58:00;;;;;;;18.40;15.30;;;8.60;99.90;;;;;;5031203;28;20350;-82
2022/03/27 08:00:28;;;;;;;10.53;8.43;;;8.70;99.90;;;;;;5030348;28;20266;-81
2022/03/27 08:02:55;;;;;;;7.03;6.20;;;8.80;99.90;;;;;;5030563;28;20232;-81
2022/03/27 08:05:22;;;;;;;6.17;5.57;;;8.80;99.90;;;;;;5030471;28;20240;-82
2022/03/27 08:07:49;;;;;;;6.37;5.87;;;8.90;99.90;;;;;;5030488;28;20673;-82
2022/03/27 08:10:16;;;;;;;6.57;6.00;;;8.90;99.90;;;;;;5030555;28;20212;-81
2022/03/27 08:12:44;;;;;;;6.97;6.10;;;9.00;99.90;;;;;;5030345;28;20208;-81
2022/03/27 08:15:11;;;;;;;7.13;6.50;;;9.00;99.90;;;;;;5030299;28;20267;-81
2022/03/27 08:17:38;;;;;;;6.80;6.10;;;9.10;99.90;;;;;;5030352;28;20209;-81
2022/03/27 08:20:06;;;;;;;6.90;6.27;;;9.20;99.90;;;;;;5029945;28;20240;-82
2022/03/27 08:22:33;;;;;;;8.13;6.87;;;9.30;99.90;;;;;;5030876;28;20259;-81
2022/03/27 08:24:59;;;;;;;7.10;6.50;;;9.30;99.90;;;;;;5030351;28;20212;-82
2022/03/27 08:27:27;;;;;;;8.27;7.23;;;9.40;99.90;;;;;;5030037;28;20208;-81
2022/03/27 08:29:55;;;;;;;9.57;6.97;;;9.40;99.90;;;;;;5029801;28;20219;-82
2022/03/27 08:32:22;;;;;;;9.47;6.90;;;9.50;99.90;;;;;;5030001;28;20270;-81
2022/03/27 08:34:49;;;;;;;7.70;6.90;;;9.50;99.90;;;;;;5030240;28;20254;-83
2022/03/27 08:37:18;;;;;;;8.13;7.33;;;9.60;99.90;;;;;;5029864;28;20213;-82
2022/03/27 08:39:45;;;;;;;8.47;7.50;;;9.70;99.90;;;;;;5029970;28;20335;-81
2022/03/27 08:42:13;;;;;;;8.07;6.87;;;9.80;99.90;;;;;;5029424;28;20288;-82
2022/03/27 08:44:40;;;;;;;9.10;7.63;;;9.90;99.90;;;;;;5029228;28;20205;-81
2022/03/27 08:47:16;;;;;;;8.63;7.73;;;10.00;99.90;;;;;;5029825;28;20205;-82
2022/03/27 08:49:49;;;;;;;7.77;7.07;;;10.20;99.90;;;;;;5029803;28;20196;-82
2022/03/27 08:52:34;;;;;;;7.90;6.80;;;10.30;99.90;;;;;;5027354;28;20652;-81
2022/03/27 08:55:04;;;;;;;7.97;7.17;;;10.30;99.90;;;;;;5028474;28;20312;-81
2022/03/27 08:57:50;;;;;;;7.67;6.97;;;10.40;99.90;;;;;;5029232;28;20638;-81
2022/03/27 09:00:20;;;;;;;8.03;6.20;;;10.50;99.90;;;;;;5029080;28;20201;-81
2022/03/27 09:02:48;;;;;;;7.97;6.90;;;10.60;99.90;;;;;;5029238;28;20813;-81
2022/03/27 09:05:16;;;;;;;7.67;6.90;;;10.80;99.90;;;;;;5029228;28;20753;-82
2022/03/27 09:07:42;;;;;;;7.10;6.40;;;10.90;99.90;;;;;;5029075;28;20235;-81
2022/03/27 09:10:11;;;;;;;8.20;7.43;;;11.00;99.90;;;;;;5029110;28;20209;-81
2022/03/27 09:12:38;;;;;;;6.57;5.97;;;11.20;99.90;;;;;;5028932;28;20627;-81
2022/03/27 09:15:08;;;;;;;6.10;5.53;;;11.30;99.90;;;;;;5029148;28;20255;-81
2022/03/27 09:17:56;;;;;;;6.10;5.20;;;11.30;99.90;;;;;;5029060;28;20212;-81
2022/03/27 09:20:34;;;;;;;6.13;5.63;;;11.40;99.90;;;;;;5028766;28;20244;-81
2022/03/27 09:23:22;;;;;;;5.87;5.37;;;11.50;99.90;;;;;;5029610;28;20683;-81
2022/03/27 09:25:52;;;;;;;5.60;4.90;;;11.60;99.90;;;;;;5029211;28;20212;-82
2022/03/27 09:28:25;;;;;;;5.33;4.83;;;11.80;99.90;;;;;;5028732;28;20671;-81
2022/03/27 09:30:52;;;;;;;5.40;4.63;;;12.00;99.90;;;;;;5028727;28;20205;-81
2022/03/27 09:33:48;;;;;;;6.43;4.73;;;12.00;99.90;;;;;;5028710;28;20216;-81
2022/03/27 09:36:18;;;;;;;4.33;3.93;;;12.00;99.90;;;;;;5028616;28;20201;-81
2022/03/27 09:38:59;;;;;;;4.43;4.03;;;12.00;99.90;;;;;;5028581;28;20257;-81
2022/03/27 09:41:38;;;;;;;4.60;4.30;;;12.00;99.90;;;;;;5028123;28;20667;-81
2022/03/27 09:44:07;;;;;;;4.17;3.87;;;12.20;99.90;;;;;;5028436;28;20290;-81
2022/03/27 09:46:51;;;;;;;6.20;4.10;;;12.30;99.90;;;;;;5028318;28;20587;-81
2022/03/27 09:49:21;;;;;;;3.83;3.53;;;12.40;99.90;;;;;;5028619;28;20645;-81
2022/03/27 09:51:52;;;;;;;4.03;3.73;;;12.50;99.90;;;;;;5028304;28;20719;-81
2022/03/27 09:54:19;;;;;;;4.10;3.80;;;12.50;99.90;;;;;;5026445;28;20213;-81
2022/03/27 09:56:45;;;;;;;4.63;4.00;;;12.50;99.90;;;;;;5027582;28;20663;-81
2022/03/27 09:59:27;;;;;;;4.30;3.90;;;12.50;99.90;;;;;;5028217;28;20200;-80
2022/03/27 10:01:53;;;;;;;3.87;3.57;;;12.80;99.90;;;;;;5028718;28;20258;-80
2022/03/27 10:04:21;;;;;;;4.47;4.07;;;12.70;99.90;;;;;;5028452;28;20233;-80
2022/03/27 10:06:48;;;;;;;4.20;3.90;;;12.60;99.90;;;;;;5028142;28;20267;-80
2022/03/27 10:09:15;;;;;;;3.83;3.53;;;12.50;99.90;;;;;;5028503;28;20208;-80
2022/03/27 10:11:43;;;;;;;3.73;3.43;;;12.30;99.90;;;;;;5028272;28;20255;-81
2022/03/27 10:14:11;;;;;;;4.67;3.93;;;12.30;99.90;;;;;;5028073;28;20217;-81
2022/03/27 10:16:39;;;;;;;5.77;3.90;;;12.40;99.90;;;;;;5028015;28;20671;-80
2022/03/27 10:19:07;;;;;;;3.87;3.47;;;12.50;99.90;;;;;;5027926;28;20241;-80
2022/03/27 10:21:37;;;;;;;4.00;3.63;;;12.70;99.90;;;;;;5028157;28;20306;-83
2022/03/27 10:24:10;;;;;;;3.77;3.40;;;12.90;99.90;;;;;;5029187;28;20225;-80
2022/03/27 10:26:38;;;;;;;3.87;3.50;;;13.10;99.90;;;;;;5028184;28;20258;-80
2022/03/27 10:29:06;;;;;;;3.47;3.27;;;13.40;99.90;;;;;;5028062;28;20549;-80
2022/03/27 10:31:33;;;;;;;3.87;3.57;;;13.50;99.90;;;;;;5028234;28;20233;-81
2022/03/27 10:34:02;;;;;;;3.50;3.20;;;13.60;99.90;;;;;;5027897;28;20204;-80
2022/03/27 10:36:41;;;;;;;3.27;3.07;;;13.90;99.90;;;;;;5027495;28;20667;-81
2022/03/27 10:39:13;;;;;;;3.47;3.17;;;13.90;99.90;;;;;;5028376;28;20274;-81
2022/03/27 10:41:46;;;;;;;3.93;3.57;;;13.90;99.90;;;;;;5027653;28;20220;-82
2022/03/27 10:44:20;;;;;;;4.70;2.77;;;13.90;99.90;;;;;;5027799;28;20228;-81
2022/03/27 10:47:15;;;;;;;3.00;2.80;;;13.70;99.90;;;;;;5028599;28;20258;-81
2022/03/27 10:49:43;;;;;;;3.70;3.07;;;13.80;99.90;;;;;;5027907;28;20208;-80
2022/03/27 10:52:11;;;;;;;5.93;3.40;;;14.00;99.90;;;;;;5025492;28;20676;-80
2022/03/27 10:54:59;;;;;;;2.80;2.60;;;14.20;99.90;;;;;;5027533;28;20573;-81
2022/03/27 10:57:30;;;;;;;2.63;2.40;;;14.40;99.90;;;;;;5027529;28;20201;-81
2022/03/27 10:59:57;;;;;;;2.63;2.43;;;14.50;99.90;;;;;;5027737;28;20615;-81
2022/03/27 11:02:43;;;;;;;4.30;3.13;;;14.60;99.90;;;;;;5027805;28;20221;-80
2022/03/27 11:05:30;;;;;;;2.87;2.67;;;14.80;99.90;;;;;;5027847;28;20193;-81
2022/03/27 11:08:45;;;;;;;3.00;2.80;;;14.80;99.90;;;;;;5027492;28;20300;-81
2022/03/27 11:11:11;;;;;;;3.33;2.70;;;14.90;99.90;;;;;;5027549;28;20205;-81
2022/03/27 11:13:40;;;;;;;3.53;2.60;;;15.00;99.90;;;;;;5026977;28;20742;-81
2022/03/27 11:16:08;;;;;;;3.33;2.93;;;15.10;99.90;;;;;;5027151;28;20739;-81
2022/03/27 11:18:36;;;;;;;3.20;2.87;;;15.00;99.90;;;;;;5030183;28;20205;-80
2022/03/27 11:21:07;;;;;;;2.40;2.20;;;14.90;99.90;;;;;;5031464;28;20197;-80
2022/03/27 11:23:37;;;;;;;2.40;2.20;;;15.00;99.90;;;;;;5032086;28;20236;-81
2022/03/27 11:26:35;;;;;;;2.60;2.40;;;15.20;99.90;;;;;;5031425;28;20220;-80
2022/03/27 11:29:05;;;;;;;2.80;2.57;;;15.20;99.90;;;;;;5030883;28;20723;-80
2022/03/27 11:31:33;;;;;;;5.13;2.97;;;15.40;99.90;;;;;;5030962;28;20690;-80
2022/03/27 11:34:20;;;;;;;3.37;2.90;;;15.60;99.90;;;;;;5031104;28;20259;-79
2022/03/27 11:37:04;;;;;;;3.00;2.77;;;15.60;99.90;;;;;;5031284;28;20262;-79
2022/03/27 11:39:35;;;;;;;3.27;2.97;;;15.70;99.90;;;;;;5018398;28;20220;-80
2022/03/27 11:42:28;;;;;;;2.73;2.53;;;15.60;99.90;;;;;;5031491;28;20208;-79
2022/03/27 11:45:12;;;;;;;3.07;2.87;;;15.70;99.90;;;;;;5030796;28;20283;-79
2022/03/27 11:47:41;;;;;;;3.33;3.03;;;15.80;99.90;;;;;;5028451;28;20205;-80
2022/03/27 11:50:09;;;;;;;3.40;3.17;;;15.80;99.90;;;;;;5029791;28;20217;-80
2022/03/27 11:52:36;;;;;;;3.27;2.97;;;15.80;99.90;;;;;;5009199;28;20241;-79
2022/03/27 11:55:04;;;;;;;2.83;2.60;;;15.80;99.90;;;;;;5028931;28;20295;-80
2022/03/27 11:57:43;;;;;;;2.87;2.67;;;16.10;99.90;;;;;;5044706;28;20606;-80
2022/03/27 12:00:11;;;;;;;3.47;3.07;;;15.80;99.90;;;;;;5026603;28;20192;-80
2022/03/27 12:02:42;;;;;;;2.80;2.50;;;15.90;99.90;;;;;;5026273;28;20266;-79
2022/03/27 12:05:09;;;;;;;3.03;2.80;;;16.00;99.90;;;;;;5026333;28;20236;-80
2022/03/27 12:07:51;;;;;;;3.20;2.90;;;16.10;99.90;;;;;;5026483;28;20286;-80
2022/03/27 12:10:18;;;;;;;2.93;2.60;;;16.20;99.90;;;;;;5026150;28;20748;-80
2022/03/27 12:13:01;;;;;;;3.13;2.93;;;16.10;99.90;;;;;;5025828;28;20331;-80
2022/03/27 12:15:45;;;;;;;3.07;2.77;;;16.20;99.90;;;;;;5018962;28;20753;-76
2022/03/27 12:18:13;;;;;;;2.90;2.57;;;16.30;99.90;;;;;;5026587;28;20201;-76
2022/03/27 12:20:48;;;;;;;3.00;2.80;;;16.50;99.90;;;;;;5026035;28;20391;-78
2022/03/27 12:23:25;;;;;;;2.50;2.30;;;16.70;99.90;;;;;;5027590;28;20215;-79
2022/03/27 12:26:00;;;;;;;4.20;2.80;;;16.90;99.90;;;;;;5026469;28;20197;-78
2022/03/27 12:31:21;;;;;;;2.97;2.77;;;17.20;99.90;;;;;;5025901;28;20598;-79
2022/03/27 12:33:49;;;;;;;3.03;2.83;;;17.30;99.90;;;;;;5026097;28;20270;-79
2022/03/27 12:36:16;;;;;;;2.67;2.47;;;17.40;99.50;;;;;;5026214;28;20227;-79
2022/03/27 12:38:43;;;;;;;3.40;3.20;;;17.50;99.30;;;;;;5021142;28;20228;-78
2022/03/27 12:41:11;;;;;;;2.73;2.53;;;17.60;98.60;;;;;;5008763;28;20240;-80
2022/03/27 12:43:42;;;;;;;2.70;2.50;;;17.50;98.20;;;;;;5025324;28;20235;-78
2022/03/27 12:46:19;;;;;;;2.70;2.50;;;17.80;98.70;;;;;;5025565;28;20209;-78
2022/03/27 12:48:58;;;;;;;2.80;2.60;;;17.90;97.60;;;;;;5026076;28;20304;-78
2022/03/27 12:51:24;;;;;;;3.10;2.73;;;17.80;97.40;;;;;;5025467;28;20634;-78
2022/03/27 12:54:01;;;;;;;3.00;2.80;;;17.80;97.50;;;;;;5023716;28;20213;-78
2022/03/27 12:56:27;;;;;;;3.10;2.90;;;17.80;97.60;;;;;;5025819;28;20721;-78
2022/03/27 12:58:56;;;;;;;3.17;2.97;;;18.00;97.30;;;;;;5025188;28;20663;-78
2022/03/27 13:01:24;;;;;;;3.03;2.60;;;18.10;97.20;;;;;;5025507;28;20212;-78
2022/03/27 13:04:01;;;;;;;2.80;2.50;;;18.10;96.90;;;;;;5025384;28;20370;-78
2022/03/27 13:06:35;;;;;;;2.23;2.13;;;18.10;95.90;;;;;;5025363;28;20232;-78
2022/03/27 13:09:03;;;;;;;2.83;2.63;;;18.00;95.70;;;;;;5025892;28;20204;-78
2022/03/27 13:11:30;;;;;;;2.30;2.07;;;17.70;95.80;;;;;;5025178;28;20441;-78